Latest Weather Observations for Telfer

IDW60801

Issued at 5:32 pm WST Saturday 1 August 2015 (issued every 30 minutes, with the page automatically refreshed every 10 minutes)

About weather observations | Map of weather stations | Latest weather observations for WA | Other Formats
Station Details ID: 013030 Name: TELFER AERO Lat: -21.71 Lon: 122.23 Height: 291.9 m
Data from the previous 72 hours. | See also: Recent months at Telfer
Date/Time
WST
Temp
°C
App
Temp
°C
Dew
Point
Rel
Hum
%
Delta-T
°C
Wind Press
QNH
hPa
Press
MSL
hPa
Rain
since 9 am
mm
Dir
 
Spd
km/h
Gust
km/h
Spd
kts
Gust
kts
01/05:30pm 28.1 24.4 2.3 19 12.8 WNW 11 15 6 8 1015.5 1014.5 0.0
01/05:00pm 29.5 25.3 1.9 17 13.8 W 13 17 7 9 1015.2 1014.2 0.0
01/04:30pm 30.0 24.6 1.5 16 14.2 WNW 19 24 10 13 1015.0 1014.0 0.0
01/04:00pm 30.7 25.8 2.0 16 14.4 W 17 26 9 14 1014.9 1013.9 0.0
01/03:30pm 30.6 25.1 1.9 16 14.4 W 20 28 11 15 1014.9 1013.9 0.0
01/03:00pm 30.7 25.8 2.0 16 14.4 W 17 24 9 13 1014.9 1013.9 0.0
01/02:30pm 30.8 25.0 2.1 16 14.5 W 22 30 12 16 1015.1 1014.1 0.0
01/02:00pm 30.2 25.6 1.6 16 14.2 WNW 15 24 8 13 1015.4 1014.4 0.0
01/01:30pm 30.8 25.5 2.9 17 14.3 WNW 20 28 11 15 1015.6 1014.6 0.0
01/01:00pm 30.2 26.7 3.3 18 13.8 W 11 20 6 11 1015.9 1014.9 0.0
01/12:30pm 30.6 26.4 3.6 18 14.0 WNW 15 22 8 12 1016.3 1015.4 0.0
01/12:00pm 29.5 25.4 4.2 20 13.1 SW 15 22 8 12 1016.9 1015.9 0.0
01/11:30am 29.2 24.2 4.6 21 12.8 WSW 20 30 11 16 1017.3 1016.3 0.0
01/11:00am 29.1 24.1 4.6 21 12.7 SW 20 26 11 14 1017.6 1016.6 0.0
01/10:30am 28.1 22.3 4.4 22 12.2 SW 24 32 13 17 1017.8 1016.8 0.0
01/10:00am 27.5 22.7 4.5 23 11.8 WSW 19 26 10 14 1017.9 1016.9 0.0
01/09:30am 26.2 21.3 4.1 24 11.2 SW 19 24 10 13 1017.9 1016.9 0.0
01/09:00am 25.0 20.0 3.6 25 10.7 WSW 19 24 10 13 1017.8 1016.8 0.0
01/08:30am 23.7 18.7 3.6 27 9.9 WSW 19 28 10 15 1017.6 1016.6 0.0
01/08:00am 21.7 17.0 2.9 29 9.0 SW 17 22 9 12 1017.4 1016.4 0.0
01/07:30am 20.4 15.3 3.2 32 8.2 WSW 19 24 10 13 1017.0 1016.3 0.0
01/07:00am 19.5 15.6 3.2 34 7.8 WSW 13 19 7 10 1016.8 1016.1 0.0
01/06:30am 19.4 15.1 3.2 34 7.7 WSW 15 24 8 13 1016.4 1015.8 0.0
01/06:00am 19.5 15.3 3.6 35 7.6 W 15 20 8 11 1016.1 1015.4 0.0
01/05:30am 18.8 15.0 3.8 37 7.2 WSW 13 15 7 8 1015.7 1015.0 0.0
01/05:00am 17.3 14.2 3.6 40 6.5 WSW 9 11 5 6 1015.7 1015.0 0.0
01/04:30am 17.5 14.8 3.8 40 6.5 WNW 7 9 4 5 1015.5 1014.8 0.0
01/04:00am 16.9 14.1 3.2 40 6.4 NW 7 9 4 5 1015.5 1014.8 0.0
01/03:30am 19.6 16.4 3.3 34 7.8 WSW 9 15 5 8 1015.5 1014.8 0.0
01/03:00am 20.5 16.2 3.3 32 8.3 WSW 15 20 8 11 1015.6 1014.9 0.0
01/02:30am 21.2 16.0 3.4 31 8.6 W 20 26 11 14 1015.8 1015.1 0.0
01/02:00am 21.6 16.6 3.8 31 8.7 W 19 22 10 12 1015.8 1015.1 0.0
01/01:30am 22.0 17.0 3.6 30 9.0 W 19 24 10 13 1016.0 1015.3 0.0
01/01:00am 22.5 17.3 3.6 29 9.3 W 20 28 11 15 1016.2 1015.6 0.0
01/12:30am 22.3 17.2 3.9 30 9.1 WNW 20 26 11 14 1016.3 1015.7 0.0
01/12:00am 22.4 16.5 4.0 30 9.1 WNW 24 30 13 16 1016.2 1015.6 0.0
 
Date/Time
WST
Temp
°C
App
Temp
°C
Dew
Point
Rel
Hum
%
Delta-T
°C
Wind Press
QNH
hPa
Press
MSL
hPa
Rain
since 9 am
mm
Dir
 
Spd
km/h
Gust
km/h
Spd
kts
Gust
kts
31/11:30pm 22.6 17.2 2.7 27 9.6 WNW 20 28 11 15 1016.2 1015.6 0.0
31/11:00pm 22.6 17.6 1.6 25 9.9 WNW 17 20 9 11 1016.4 1015.8 0.0
31/10:30pm 22.4 18.9 1.4 25 9.9 W 9 13 5 7 1016.5 1015.9 0.0
31/10:00pm 21.6 17.7 1.3 26 9.5 W 11 15 6 8 1016.3 1015.7 0.0
31/09:30pm 20.4 17.3 1.3 28 8.8 NW 7 9 4 5 1016.2 1015.6 0.0
31/09:00pm 20.2 16.9 0.1 26 9.0 NW 7 9 4 5 1016.3 1015.7 0.0
31/08:30pm 23.5 20.0 1.2 23 10.5 WNW 9 11 5 6 1016.2 1015.6 0.0
31/08:00pm 23.3 19.4 1.0 23 10.5 WNW 11 15 6 8 1016.1 1015.4 0.0
31/07:30pm 24.0 20.1 1.0 22 10.9 WNW 11 13 6 7 1015.8 1015.1 0.0
31/07:00pm 24.6 20.6 0.8 21 11.2 WNW 11 13 6 7 1015.5 1014.8 0.0
31/06:30pm 25.0 21.4 0.5 20 11.5 WNW 9 11 5 6 1015.0 1014.3 0.0
31/06:00pm 26.4 22.8 0.9 19 12.2 WNW 9 11 5 6 1014.8 1014.1 0.0
31/05:30pm 28.3 24.2 0.1 16 13.5 NW 11 15 6 8 1014.6 1013.9 0.0
31/05:00pm 29.8 24.3 0.4 15 14.3 NW 19 28 10 15 1014.6 1013.9 0.0
31/04:30pm 30.7 25.9 0.2 14 14.9 NNW 15 24 8 13 1014.5 1013.8 0.0
31/04:00pm 30.9 25.4 0.3 14 15.0 NW 19 30 10 16 1014.4 1013.7 0.0
31/03:30pm 30.7 25.5 0.2 14 14.9 NNW 17 24 9 13 1014.4 1013.7 0.0
31/03:00pm 31.0 27.0 0.4 14 15.0 NW 11 15 6 8 1014.4 1013.7 0.0
31/02:30pm 30.9 26.3 1.3 15 14.7 N 15 30 8 16 1014.8 1014.1 0.0
31/02:00pm 30.3 25.2 0.8 15 14.5 N 17 26 9 14 1015.2 1014.5 0.0
31/01:30pm 30.1 25.7 0.6 15 14.4 N 13 20 7 11 1015.6 1014.9 0.0
31/01:00pm 30.9 26.6 1.3 15 14.7 N 13 26 7 14 1016.1 1015.4 0.0
31/12:30pm 30.1 25.5 1.5 16 14.2 NNE 15 26 8 14 1016.8 1016.1 0.0
31/12:00pm 30.1 25.1 1.5 16 14.2 NNE 17 33 9 18 1017.2 1016.5 0.0
31/11:30am 29.3 24.6 3.3 19 13.3 N 17 22 9 12 1017.6 1016.9 0.0
31/11:00am 28.8 23.1 0.5 16 13.7 NNE 20 28 11 15 1018.0 1017.3 0.0
31/10:30am 28.5 22.6 -0.6 15 13.8 NE 20 28 11 15 1018.6 1017.9 0.0
31/10:00am 27.6 22.7 -0.5 16 13.2 NNE 15 22 8 12 1019.0 1018.3 0.0
31/09:30am 25.0 19.8 -0.2 19 11.7 NE 17 26 9 14 1019.4 1018.8 0.0
31/09:00am 23.7 18.8 -0.6 20 11.1 NE 15 20 8 11 1019.5 1018.9 0.0
31/08:30am 22.2 18.0 -1.1 21 10.4 E 11 17 6 9 1019.5 1018.9 0.0
31/08:00am 20.1 15.6 -3.5 20 9.9 SE 11 13 6 7 1019.2 1018.6 0.0
31/07:30am 17.9 13.7 -3.5 23 8.8 SE 9 13 5 7 1019.0 1018.3 0.0
31/07:00am 13.6 9.0 -4.5 28 6.9 SE 11 13 6 7 1018.7 1018.0 0.0
31/06:30am 12.7 9.0 -4.9 29 6.6 ESE 6 7 3 4 1018.5 1017.8 0.0
31/06:00am 12.3 8.3 -5.2 29 6.5 SE 7 9 4 5 1018.2 1017.5 0.0
31/05:30am 12.7 8.8 -4.9 29 6.6 SE 7 9 4 5 1018.0 1017.3 0.0
31/05:00am 13.3 9.0 -5.3 27 7.0 SE 9 13 5 7 1017.8 1017.1 0.0
31/04:30am 12.8 8.5 -5.2 28 6.7 SE 9 11 5 6 1017.7 1017.0 0.0
31/04:00am 12.3 7.2 -8.8 22 7.2 SE 11 13 6 7 1017.8 1017.1 0.0
31/03:30am 13.1 9.1 -5.4 27 6.9 SE 7 9 4 5 1017.9 1017.2 0.0
31/03:00am 13.3 9.3 -5.3 27 7.0 SE 7 9 4 5 1018.2 1017.5 0.0
31/02:30am 14.1 10.4 -4.6 27 7.2 SSE 6 7 3 4 1018.4 1017.7 0.0
31/02:00am 13.6 9.9 -5.0 27 7.0 SE 6 9 3 5 1018.5 1017.8 0.0
31/01:30am 14.6 10.7 -4.7 26 7.4 SE 7 9 4 5 1018.7 1018.0 0.0
31/01:00am 14.5 10.2 -4.7 26 7.4 SE 9 9 5 5 1019.0 1018.3 0.0
31/12:30am 16.7 12.4 -4.5 23 8.4 SSE 9 11 5 6 1019.4 1018.8 0.0
31/12:00am 18.0 13.7 -4.6 21 9.0 SE 9 11 5 6 1019.6 1019.0 0.0
 
Date/Time
WST
Temp
°C
App
Temp
°C
Dew
Point
Rel
Hum
%
Delta-T
°C
Wind Press
QNH
hPa
Press
MSL
hPa
Rain
since 9 am
mm
Dir
 
Spd
km/h
Gust
km/h
Spd
kts
Gust
kts
30/11:30pm 18.0 13.7 -4.6 21 9.1 SE 9 11 5 6 1019.6 1019.0 0.0
30/11:00pm 16.9 12.2 -5.5 21 8.7 SE 11 13 6 7 1019.7 1019.1 0.0
30/10:30pm 17.5 13.2 -5.0 21 8.9 SE 9 9 5 5 1020.0 1019.4 0.0
30/10:00pm 17.1 12.4 -5.4 21 8.8 SE 11 13 6 7 1020.2 1019.6 0.0
30/09:30pm 17.7 12.6 -4.9 21 9.0 SE 13 13 7 7 1020.1 1019.5 0.0
30/09:00pm 18.9 13.8 -5.2 19 9.6 SE 13 15 7 8 1020.0 1019.4 0.0
30/08:30pm 19.7 14.6 -5.3 18 10.1 SE 13 13 7 7 1019.8 1019.2 0.0
30/08:00pm 19.9 15.2 -5.1 18 10.1 SE 11 13 6 7 1019.7 1019.1 0.0
30/07:30pm 21.1 15.9 -5.7 16 10.8 SE 13 13 7 7 1019.4 1018.8 0.0
30/07:00pm 22.2 17.4 -5.6 15 11.4 SE 11 11 6 6 1019.0 1018.3 0.0
30/06:30pm 23.1 18.7 -5.8 14 11.9 SE 9 9 5 5 1018.8 1018.1 0.0
30/06:00pm 24.6 20.1 -6.7 12 12.8 SE 9 11 5 6 1018.7 1018.0 0.0
30/05:30pm 26.5 22.1 -6.3 11 13.8 E 9 11 5 6 1018.5 1017.8 0.0
30/05:00pm 28.8 23.5 -7.2 9 15.2 E 13 17 7 9 1018.4 1017.7 0.0
30/04:30pm 29.6 24.2 -8.1 8 15.8 ESE 13 17 7 9 1018.4 1017.7 0.0
30/04:00pm 29.7 24.3 -8.0 8 15.8 E 13 20 7 11 1018.5 1017.8 0.0
30/03:30pm 29.8 24.4 -8.0 8 15.9 E 13 24 7 13 1018.6 1017.9 0.0
30/03:00pm 30.0 23.8 -9.5 7 16.2 ENE 17 24 9 13 1018.7 1018.0 0.0
30/02:30pm 30.2 24.3 -9.4 7 16.3 E 15 24 8 13 1019.0 1018.3 0.0
30/02:00pm 29.7 23.6 -8.0 8 15.8 NE 17 26 9 14 1019.1 1018.4 0.0
30/01:30pm 29.0 23.7 -7.0 9 15.3 E 13 22 7 12 1019.6 1019.0 0.0
30/01:00pm 29.1 22.5 -7.0 9 15.3 ENE 20 30 11 16 1020.1 1019.5 0.0
30/12:30pm 28.9 23.0 -5.7 10 15.0 ENE 17 26 9 14 1020.5 1019.8 0.0
30/12:00pm 28.5 22.6 -6.0 10 14.8 E 17 30 9 16 1021.2 1020.5 0.0
30/11:30am 28.1 21.6 -7.7 9 14.9 E 19 28 10 15 1021.7 1021.0 0.0
30/11:00am 27.6 21.3 -5.5 11 14.2 E 19 26 10 14 1022.2 1021.6 0.0
30/10:30am 26.4 19.6 -5.3 12 13.6 E 22 32 12 17 1022.6 1022.0 0.0
30/10:00am 24.8 18.5 -3.6 15 12.3 E 20 28 11 15 1023.0 1022.4 0.0
30/09:30am 23.6 17.5 -3.7 16 11.8 ESE 19 24 10 13 1023.0 1022.4 0.0
30/09:00am 22.5 16.9 -3.0 18 11.0 E 17 24 9 13 1023.2 1022.6 0.0
30/08:30am 20.8 16.4 0.1 25 9.4 ESE 13 19 7 10 1023.0 1022.4 0.0
30/08:00am 17.8 12.7 0.5 31 7.7 SE 17 20 9 11 1022.7 1022.1 0.0
30/07:30am 16.5 11.1 1.4 36 6.8 SE 19 22 10 12 1022.3 1021.7 0.0
30/07:00am 16.2 11.2 1.1 36 6.7 SE 17 20 9 11 1021.8 1021.1 0.0
30/06:30am 14.2 9.2 1.5 42 5.6 SE 17 19 9 10 1021.5 1020.8 0.0
30/06:00am 13.0 8.8 1.4 45 5.0 SE 13 17 7 9 1021.3 1020.6 0.0
30/05:30am 11.9 7.7 1.5 49 4.5 SE 13 17 7 9 1020.9 1020.2 0.0
30/05:00am 13.1 8.9 1.8 46 4.9 SE 13 15 7 8 1020.8 1020.1 0.0
30/04:30am 15.3 11.5 1.8 40 6.0 SE 11 15 6 8 1020.6 1019.9 0.0
30/04:00am 16.3 12.5 2.0 38 6.5 SE 11 13 6 7 1020.7 1020.0 0.0
30/03:30am 14.6 10.5 2.5 44 5.5 SE 13 15 7 8 1020.7 1020.0 0.0
30/03:00am 16.8 12.7 2.0 37 6.7 SE 13 13 7 7 1020.9 1020.2 0.0
30/02:30am 18.0 14.3 2.3 35 7.3 SE 11 11 6 6 1020.9 1020.2 0.0
30/02:00am 17.9 14.6 2.6 36 7.1 ESE 9 11 5 6 1020.9 1020.2 0.0
30/01:30am 16.9 13.7 2.9 39 6.5 SE 9 11 5 6 1020.9 1020.2 0.0
30/01:00am 16.6 13.0 3.0 40 6.3 SE 11 15 6 8 1021.1 1020.4 0.0
30/12:30am 16.8 12.8 3.1 40 6.4 SE 13 15 7 8 1021.3 1020.6 0.0
30/12:00am 16.9 13.0 3.2 40 6.4 SE 13 15 7 8 1021.6 1020.9 0.0
 
Date/Time
WST
Temp
°C
App
Temp
°C
Dew
Point
Rel
Hum
%
Delta-T
°C
Wind Press
QNH
hPa
Press
MSL
hPa
Rain
since 9 am
mm
Dir
 
Spd
km/h
Gust
km/h
Spd
kts
Gust
kts
29/11:30pm 18.9 15.3 3.1 35 7.5 SE 11 13 6 7 1021.5 1020.8 0.0
29/11:00pm 19.7 15.8 3.4 34 7.8 SE 13 15 7 8 1021.4 1020.7 0.0
29/10:30pm 19.8 16.0 3.9 35 7.7 SE 13 15 7 8 1021.4 1020.7 0.0
29/10:00pm 18.9 15.9 3.9 37 7.2 ESE 9 11 5 6 1021.6 1020.9 0.0
29/09:30pm 19.6 16.5 3.7 35 7.7 SE 9 11 5 6 1021.7 1021.0 0.0
29/09:00pm 20.0 16.6 4.1 35 7.7 SE 11 13 6 7 1021.6 1020.9 0.0
29/08:30pm 21.1 17.7 4.2 33 8.3 SE 11 13 6 7 1021.7 1021.0 0.0
29/08:00pm 22.0 18.6 4.1 31 8.8 SE 11 13 6 7 1021.6 1020.9 0.0
29/07:30pm 22.5 19.2 4.5 31 9.0 SE 11 11 6 6 1021.4 1020.7 0.0
29/07:00pm 23.5 20.2 4.5 29 9.5 SE 11 13 6 7 1020.9 1020.2 0.0
29/06:30pm 24.5 21.2 4.3 27 10.2 SE 11 13 6 7 1020.4 1019.7 0.0
29/06:00pm 25.9 22.7 4.9 26 10.8 SSE 11 13 6 7 1019.8 1019.2 0.0

Other Formats:

Comma delimited format used in spreadsheet applications
http://www.bom.gov.au/fwo/IDW60801/IDW60801.94319.axf

JavaScript Object Notation format (JSON) in row-major order
http://www.bom.gov.au/fwo/IDW60801/IDW60801.94319.json